Cheraw, CO

12:38 AM MDT on September 17, 2014 (GMT -0600)
La Junta Municipal | Change Station
CLOSE
Current Station
Airport
Location: La Junta,
Elevation: 4239 ft
Nearby Weather Stations

Elev 4239 ft 38.05 °N, 103.51 °W | Updated 45 minutes ago

Clear
Clear
65 °F
Feels Like 65 °F
N
4
Wind Variable Wind from SW

Today
High -- | Low -- °F
--% Chance of Precip.
Yesterday
High -- | Low -- °F
Precip. -- in
6:37 AM 6:58 PM
Last Quarter, 38% visible
Pressure 29.89 in
Visibility 10.0 miles
Clouds Clear
Dew Point 47 °F
Humidity 52%
Rainfall 0.00 in
Snow Depth Not available.
UV 0 out of 12
Pollen 5.90 out of 12
Air Quality Not available.
Flu Activity Not available.
METAR KLHX 170553Z AUTO 23003KT 10SM CLR 18/08 A3004 RMK AO2 SLP120 T01830083 10311 20172 52000

More Conditions Fewer Conditions

Pressure 29.89 in
Visibility 10.0 miles
Clouds Clear
Dew Point 47 °F
Humidity 52%
Rainfall 0.00 in
Snow Depth Not available.
UV 0 out of 12
Pollen 5.90 out of 12
Air Quality Not available.
Flu Activity Not available.
METAR KLHX 170553Z AUTO 23003KT 10SM CLR 18/08 A3004 RMK AO2 SLP120 T01830083 10311 20172 52000

More Conditions Fewer Conditions

10-Day Weather Forecast

Almanac

Astronomy

Sep. 17, 2014 Rise Set
Actual Time 6:37 AM MDT 6:58 PM MDT
Civil Twilight 6:11 AM MDT 7:25 PM MDT
Nautical Twilight 5:40 AM MDT 7:56 PM MDT
Astronomical Twilight 5:08 AM MDT 8:27 PM MDT
Moon 12:43 AM MDT 3:06 PM MDT
Length of Visible Light 13h 13m
Length of Day
12h 21m
Tomorrow will be 2m 26s shorter.
Last Quarter, 38% of the Moon is Illuminated
Today
Last Quarter
Sep 24
New
Oct 1
First Quarter
Oct 8
Full
Oct 15
Last Quarter

Today's Extremes

State Highs State Lows

Community

WunderPhotos

Upload Photos

1,753,970 photos uploaded!

Nearby

Snow Depth

Station Depth Elevation
Bison Lake 0 in 10880 ft
Vallecito 0 in 10880 ft
Ute Creek 0 in 10650 ft
Rawah 18 in 9020 ft
El Diente Peak 1 in 10200 ft

Earthquake Activity

City Distance Mag. Time & Date
No recent earthquake activity has been reported nearby.
Minimum magnitude displayed is 2.5.

Coastal Water Temperatures

Place Temperature
No Stations Reporting

Nearby Weather Stations